sensor_id;sensor_type;location;lat;lon;timestamp;pressure;altitude;pressure_sealevel;temperature;humidity
6668;BME280;3370;47.712;9.082;2023-09-18T00:00:04;96560.72;;;18.23;100.00
6668;BME280;3370;47.712;9.082;2023-09-18T00:02:38;96548.59;;;18.33;100.00
6668;BME280;3370;47.712;9.082;2023-09-18T00:05:04;96545.56;;;18.37;100.00
6668;BME280;3370;47.712;9.082;2023-09-18T00:07:29;96547.66;;;18.44;100.00
6668;BME280;3370;47.712;9.082;2023-09-18T00:09:55;96546.91;;;18.32;100.00
6668;BME280;3370;47.712;9.082;2023-09-18T00:12:21;96548.91;;;18.18;100.00
6668;BME280;3370;47.712;9.082;2023-09-18T00:14:51;96549.84;;;18.17;100.00
6668;BME280;3370;47.712;9.082;2023-09-18T00:17:17;96554.69;;;18.22;100.00
6668;BME280;3370;47.712;9.082;2023-09-18T00:19:43;96561.09;;;17.97;100.00
6668;BME280;3370;47.712;9.082;2023-09-18T00:22:09;96553.44;;;17.95;100.00
6668;BME280;3370;47.712;9.082;2023-09-18T00:24:34;96537.44;;;18.00;100.00
6668;BME280;3370;47.712;9.082;2023-09-18T00:27:00;96549.94;;;18.06;100.00
6668;BME280;3370;47.712;9.082;2023-09-18T00:29:26;96547.69;;;17.80;100.00
6668;BME280;3370;47.712;9.082;2023-09-18T00:31:52;96540.09;;;17.89;100.00
6668;BME280;3370;47.712;9.082;2023-09-18T00:34:18;96535.47;;;17.92;100.00
6668;BME280;3370;47.712;9.082;2023-09-18T00:36:43;96523.84;;;17.96;100.00
6668;BME280;3370;47.712;9.082;2023-09-18T00:39:10;96530.06;;;18.05;100.00
6668;BME280;3370;47.712;9.082;2023-09-18T00:41:36;96535.47;;;18.13;100.00
6668;BME280;3370;47.712;9.082;2023-09-18T00:44:02;96529.91;;;17.97;100.00
6668;BME280;3370;47.712;9.082;2023-09-18T00:46:28;96514.34;;;17.86;100.00
6668;BME280;3370;47.712;9.082;2023-09-18T00:48:54;96506.09;;;17.80;100.00
6668;BME280;3370;47.712;9.082;2023-09-18T00:51:20;96507.25;;;17.88;100.00
6668;BME280;3370;47.712;9.082;2023-09-18T00:53:47;96503.00;;;17.87;100.00
6668;BME280;3370;47.712;9.082;2023-09-18T00:56:14;96506.97;;;17.91;100.00
6668;BME280;3370;47.712;9.082;2023-09-18T00:58:40;96513.84;;;17.92;100.00
6668;BME280;3370;47.712;9.082;2023-09-18T01:01:06;96510.16;;;17.94;100.00
6668;BME280;3370;47.712;9.082;2023-09-18T01:03:34;96508.41;;;17.95;100.00
6668;BME280;3370;47.712;9.082;2023-09-18T01:06:00;96519.50;;;17.97;100.00
6668;BME280;3370;47.712;9.082;2023-09-18T01:08:25;96506.47;;;17.97;100.00
6668;BME280;3370;47.712;9.082;2023-09-18T01:11:13;96494.28;;;17.97;100.00
6668;BME280;3370;47.712;9.082;2023-09-18T01:14:17;96494.16;;;17.99;100.00
6668;BME280;3370;47.712;9.082;2023-09-18T01:16:53;96488.31;;;18.07;100.00
6668;BME280;3370;47.712;9.082;2023-09-18T01:19:41;96485.16;;;18.03;100.00
6668;BME280;3370;47.712;9.082;2023-09-18T01:22:09;96474.44;;;17.96;100.00
6668;BME280;3370;47.712;9.082;2023-09-18T01:24:37;96475.28;;;17.97;100.00
6668;BME280;3370;47.712;9.082;2023-09-18T01:27:04;96467.47;;;17.97;100.00
6668;BME280;3370;47.712;9.082;2023-09-18T01:29:31;96453.25;;;18.01;100.00
6668;BME280;3370;47.712;9.082;2023-09-18T01:31:57;96442.81;;;17.91;100.00
6668;BME280;3370;47.712;9.082;2023-09-18T01:34:28;96429.44;;;17.85;100.00
6668;BME280;3370;47.712;9.082;2023-09-18T01:36:57;96433.91;;;17.94;100.00
6668;BME280;3370;47.712;9.082;2023-09-18T01:39:24;96419.66;;;17.88;100.00
6668;BME280;3370;47.712;9.082;2023-09-18T01:41:52;96409.88;;;17.80;100.00
6668;BME280;3370;47.712;9.082;2023-09-18T01:44:18;96415.06;;;17.80;100.00
6668;BME280;3370;47.712;9.082;2023-09-18T01:46:44;96420.13;;;17.82;100.00
6668;BME280;3370;47.712;9.082;2023-09-18T01:49:10;96431.84;;;17.76;100.00
6668;BME280;3370;47.712;9.082;2023-09-18T01:51:36;96432.13;;;17.73;100.00
6668;BME280;3370;47.712;9.082;2023-09-18T01:54:02;96427.72;;;17.64;100.00
6668;BME280;3370;47.712;9.082;2023-09-18T01:56:29;96415.44;;;17.55;100.00
6668;BME280;3370;47.712;9.082;2023-09-18T01:58:54;96401.63;;;17.54;100.00
6668;BME280;3370;47.712;9.082;2023-09-18T02:01:20;96411.34;;;17.52;100.00
6668;BME280;3370;47.712;9.082;2023-09-18T02:03:46;96423.56;;;17.61;100.00
6668;BME280;3370;47.712;9.082;2023-09-18T02:06:12;96429.88;;;17.59;100.00
6668;BME280;3370;47.712;9.082;2023-09-18T02:08:38;96438.84;;;17.55;100.00
6668;BME280;3370;47.712;9.082;2023-09-18T02:11:04;96431.78;;;17.57;100.00
6668;BME280;3370;47.712;9.082;2023-09-18T02:13:30;96439.16;;;17.61;100.00
6668;BME280;3370;47.712;9.082;2023-09-18T02:15:56;96435.75;;;17.61;100.00
6668;BME280;3370;47.712;9.082;2023-09-18T02:18:22;96429.59;;;17.62;100.00
6668;BME280;3370;47.712;9.082;2023-09-18T02:20:48;96435.91;;;17.69;100.00
6668;BME280;3370;47.712;9.082;2023-09-18T02:23:17;96433.78;;;17.74;100.00
6668;BME280;3370;47.712;9.082;2023-09-18T02:25:44;96430.47;;;17.72;100.00
6668;BME280;3370;47.712;9.082;2023-09-18T02:28:10;96423.91;;;17.68;100.00
6668;BME280;3370;47.712;9.082;2023-09-18T02:30:36;96439.25;;;17.71;100.00
6668;BME280;3370;47.712;9.082;2023-09-18T02:33:02;96443.09;;;17.35;100.00
6668;BME280;3370;47.712;9.082;2023-09-18T02:35:30;96437.84;;;17.46;100.00
6668;BME280;3370;47.712;9.082;2023-09-18T02:37:56;96436.59;;;17.40;100.00
6668;BME280;3370;47.712;9.082;2023-09-18T02:40:22;96427.50;;;17.35;100.00
6668;BME280;3370;47.712;9.082;2023-09-18T02:42:48;96428.34;;;17.35;100.00
6668;BME280;3370;47.712;9.082;2023-09-18T02:45:14;96419.91;;;17.43;100.00
6668;BME280;3370;47.712;9.082;2023-09-18T02:47:39;96427.50;;;17.56;100.00
6668;BME280;3370;47.712;9.082;2023-09-18T02:50:07;96439.56;;;17.36;100.00
6668;BME280;3370;47.712;9.082;2023-09-18T02:52:33;96450.31;;;17.10;100.00
6668;BME280;3370;47.712;9.082;2023-09-18T02:54:59;96454.34;;;17.03;100.00
6668;BME280;3370;47.712;9.082;2023-09-18T02:57:25;96455.97;;;17.15;100.00
6668;BME280;3370;47.712;9.082;2023-09-18T02:59:50;96477.19;;;17.20;100.00
6668;BME280;3370;47.712;9.082;2023-09-18T03:02:16;96476.94;;;17.23;100.00
6668;BME280;3370;47.712;9.082;2023-09-18T03:04:42;96482.69;;;17.27;100.00
6668;BME280;3370;47.712;9.082;2023-09-18T03:07:08;96490.72;;;17.35;100.00
6668;BME280;3370;47.712;9.082;2023-09-18T03:09:34;96506.88;;;17.39;100.00
6668;BME280;3370;47.712;9.082;2023-09-18T03:12:01;96515.13;;;17.44;100.00
6668;BME280;3370;47.712;9.082;2023-09-18T03:14:27;96521.72;;;17.48;100.00
6668;BME280;3370;47.712;9.082;2023-09-18T03:16:53;96523.75;;;17.66;100.00
6668;BME280;3370;47.712;9.082;2023-09-18T03:19:19;96535.44;;;17.71;100.00
6668;BME280;3370;47.712;9.082;2023-09-18T03:21:44;96522.88;;;17.76;100.00
6668;BME280;3370;47.712;9.082;2023-09-18T03:24:10;96529.13;;;17.85;100.00
6668;BME280;3370;47.712;9.082;2023-09-18T03:26:36;96522.00;;;17.87;100.00
6668;BME280;3370;47.712;9.082;2023-09-18T03:29:02;96527.78;;;17.91;100.00
6668;BME280;3370;47.712;9.082;2023-09-18T03:31:27;96536.81;;;17.87;100.00
6668;BME280;3370;47.712;9.082;2023-09-18T03:33:54;96544.72;;;17.85;100.00
6668;BME280;3370;47.712;9.082;2023-09-18T03:36:23;96540.66;;;17.92;100.00
6668;BME280;3370;47.712;9.082;2023-09-18T03:38:49;96524.84;;;17.84;100.00
6668;BME280;3370;47.712;9.082;2023-09-18T03:41:15;96528.53;;;17.81;100.00
6668;BME280;3370;47.712;9.082;2023-09-18T03:43:41;96514.13;;;17.77;100.00
6668;BME280;3370;47.712;9.082;2023-09-18T03:46:07;96500.56;;;17.74;100.00
6668;BME280;3370;47.712;9.082;2023-09-18T03:48:34;96506.44;;;17.76;100.00
6668;BME280;3370;47.712;9.082;2023-09-18T03:51:06;96516.72;;;17.77;100.00
6668;BME280;3370;47.712;9.082;2023-09-18T03:53:35;96534.72;;;17.69;100.00
6668;BME280;3370;47.712;9.082;2023-09-18T03:56:01;96538.38;;;17.46;100.00
6668;BME280;3370;47.712;9.082;2023-09-18T03:58:27;96522.34;;;17.40;100.00
6668;BME280;3370;47.712;9.082;2023-09-18T04:00:53;96522.78;;;17.46;100.00
6668;BME280;3370;47.712;9.082;2023-09-18T04:03:19;96514.56;;;17.40;100.00
6668;BME280;3370;47.712;9.082;2023-09-18T04:05:45;96518.53;;;17.44;100.00
6668;BME280;3370;47.712;9.082;2023-09-18T04:08:11;96499.97;;;17.49;100.00
6668;BME280;3370;47.712;9.082;2023-09-18T04:10:37;96497.00;;;17.54;100.00
6668;BME280;3370;47.712;9.082;2023-09-18T04:13:03;96518.25;;;17.59;100.00
6668;BME280;3370;47.712;9.082;2023-09-18T04:15:29;96527.97;;;17.46;100.00
6668;BME280;3370;47.712;9.082;2023-09-18T04:17:58;96531.59;;;17.33;100.00
6668;BME280;3370;47.712;9.082;2023-09-18T04:20:24;96518.97;;;17.29;100.00
6668;BME280;3370;47.712;9.082;2023-09-18T04:23:23;96510.06;;;17.31;100.00
6668;BME280;3370;47.712;9.082;2023-09-18T04:25:51;96519.88;;;17.39;100.00
6668;BME280;3370;47.712;9.082;2023-09-18T04:28:18;96515.66;;;17.27;100.00
6668;BME280;3370;47.712;9.082;2023-09-18T04:30:45;96525.66;;;17.31;100.00
6668;BME280;3370;47.712;9.082;2023-09-18T04:33:13;96515.28;;;17.31;100.00
6668;BME280;3370;47.712;9.082;2023-09-18T04:35:39;96508.69;;;17.27;100.00
6668;BME280;3370;47.712;9.082;2023-09-18T04:38:07;96500.44;;;17.22;100.00
6668;BME280;3370;47.712;9.082;2023-09-18T04:40:34;96509.66;;;17.15;100.00
6668;BME280;3370;47.712;9.082;2023-09-18T04:43:01;96512.47;;;17.23;100.00
6668;BME280;3370;47.712;9.082;2023-09-18T04:45:27;96527.38;;;17.21;100.00
6668;BME280;3370;47.712;9.082;2023-09-18T04:47:53;96531.38;;;17.25;100.00
6668;BME280;3370;47.712;9.082;2023-09-18T04:50:19;96548.75;;;17.24;100.00
6668;BME280;3370;47.712;9.082;2023-09-18T04:52:45;96545.63;;;17.31;100.00
6668;BME280;3370;47.712;9.082;2023-09-18T04:55:13;96559.66;;;17.39;100.00
6668;BME280;3370;47.712;9.082;2023-09-18T04:57:39;96556.84;;;17.31;100.00
6668;BME280;3370;47.712;9.082;2023-09-18T05:00:06;96554.25;;;17.31;100.00
6668;BME280;3370;47.712;9.082;2023-09-18T05:02:38;96560.19;;;17.33;100.00
6668;BME280;3370;47.712;9.082;2023-09-18T05:05:05;96563.34;;;17.37;100.00
6668;BME280;3370;47.712;9.082;2023-09-18T05:07:31;96565.22;;;17.35;100.00
6668;BME280;3370;47.712;9.082;2023-09-18T05:09:58;96573.88;;;17.35;100.00
6668;BME280;3370;47.712;9.082;2023-09-18T05:12:24;96566.38;;;17.42;100.00
6668;BME280;3370;47.712;9.082;2023-09-18T05:14:49;96556.13;;;17.40;100.00
6668;BME280;3370;47.712;9.082;2023-09-18T05:17:17;96557.88;;;17.40;100.00
6668;BME280;3370;47.712;9.082;2023-09-18T05:19:44;96562.38;;;17.38;100.00
6668;BME280;3370;47.712;9.082;2023-09-18T05:22:10;96566.03;;;17.47;100.00
6668;BME280;3370;47.712;9.082;2023-09-18T05:24:38;96565.78;;;17.50;100.00
6668;BME280;3370;47.712;9.082;2023-09-18T05:27:04;96568.34;;;17.61;100.00
6668;BME280;3370;47.712;9.082;2023-09-18T05:29:34;96559.44;;;17.75;100.00
6668;BME280;3370;47.712;9.082;2023-09-18T05:32:01;96566.25;;;17.76;100.00
6668;BME280;3370;47.712;9.082;2023-09-18T05:34:27;96568.28;;;17.72;100.00
6668;BME280;3370;47.712;9.082;2023-09-18T05:36:53;96583.53;;;17.77;100.00
6668;BME280;3370;47.712;9.082;2023-09-18T05:39:19;96581.50;;;17.80;100.00
6668;BME280;3370;47.712;9.082;2023-09-18T05:41:45;96590.94;;;17.81;100.00
6668;BME280;3370;47.712;9.082;2023-09-18T05:44:14;96594.47;;;17.92;100.00
6668;BME280;3370;47.712;9.082;2023-09-18T05:46:45;96593.41;;;18.15;100.00
6668;BME280;3370;47.712;9.082;2023-09-18T05:49:15;96585.53;;;18.27;100.00
6668;BME280;3370;47.712;9.082;2023-09-18T05:51:42;96574.63;;;18.33;100.00
6668;BME280;3370;47.712;9.082;2023-09-18T05:54:09;96570.66;;;18.38;100.00
6668;BME280;3370;47.712;9.082;2023-09-18T05:56:35;96559.28;;;18.39;100.00
6668;BME280;3370;47.712;9.082;2023-09-18T05:59:00;96545.56;;;18.37;100.00
6668;BME280;3370;47.712;9.082;2023-09-18T06:01:26;96531.88;;;18.35;100.00
6668;BME280;3370;47.712;9.082;2023-09-18T06:03:53;96537.19;;;18.34;100.00
6668;BME280;3370;47.712;9.082;2023-09-18T06:06:19;96540.78;;;18.33;100.00
6668;BME280;3370;47.712;9.082;2023-09-18T06:08:44;96545.00;;;18.34;100.00
6668;BME280;3370;47.712;9.082;2023-09-18T06:11:10;96543.78;;;18.38;100.00
6668;BME280;3370;47.712;9.082;2023-09-18T06:13:36;96545.19;;;18.42;100.00
6668;BME280;3370;47.712;9.082;2023-09-18T06:16:04;96538.22;;;18.43;100.00
6668;BME280;3370;47.712;9.082;2023-09-18T06:18:33;96560.13;;;18.40;100.00
6668;BME280;3370;47.712;9.082;2023-09-18T06:20:58;96567.50;;;18.35;100.00
6668;BME280;3370;47.712;9.082;2023-09-18T06:23:24;96567.50;;;18.35;100.00
6668;BME280;3370;47.712;9.082;2023-09-18T06:25:50;96568.75;;;18.41;100.00
6668;BME280;3370;47.712;9.082;2023-09-18T06:28:22;96574.41;;;18.46;100.00
6668;BME280;3370;47.712;9.082;2023-09-18T06:30:48;96580.16;;;18.49;100.00
6668;BME280;3370;47.712;9.082;2023-09-18T06:33:14;96575.81;;;18.59;100.00
6668;BME280;3370;47.712;9.082;2023-09-18T06:35:40;96576.38;;;18.63;100.00
6668;BME280;3370;47.712;9.082;2023-09-18T06:38:06;96586.78;;;18.63;100.00
6668;BME280;3370;47.712;9.082;2023-09-18T06:40:32;96596.41;;;18.63;100.00
6668;BME280;3370;47.712;9.082;2023-09-18T06:42:59;96601.06;;;18.69;100.00
6668;BME280;3370;47.712;9.082;2023-09-18T06:45:26;96604.66;;;18.68;100.00
6668;BME280;3370;47.712;9.082;2023-09-18T06:47:52;96614.09;;;18.69;100.00
6668;BME280;3370;47.712;9.082;2023-09-18T06:50:19;96622.34;;;18.74;100.00
6668;BME280;3370;47.712;9.082;2023-09-18T06:52:45;96624.94;;;18.74;100.00
6668;BME280;3370;47.712;9.082;2023-09-18T06:55:11;96615.50;;;18.73;100.00
6668;BME280;3370;47.712;9.082;2023-09-18T06:57:37;96623.72;;;18.78;100.00
6668;BME280;3370;47.712;9.082;2023-09-18T07:00:03;96633.91;;;18.81;100.00
6668;BME280;3370;47.712;9.082;2023-09-18T07:02:30;96648.13;;;18.77;100.00
6668;BME280;3370;47.712;9.082;2023-09-18T07:04:56;96656.13;;;18.85;100.00
6668;BME280;3370;47.712;9.082;2023-09-18T07:07:22;96649.16;;;18.86;100.00
6668;BME280;3370;47.712;9.082;2023-09-18T07:09:51;96644.31;;;19.02;98.74
6668;BME280;3370;47.712;9.082;2023-09-18T07:12:17;96653.88;;;19.02;99.46
6668;BME280;3370;47.712;9.082;2023-09-18T07:14:46;96647.28;;;18.98;100.00
6668;BME280;3370;47.712;9.082;2023-09-18T07:17:12;96648.94;;;18.99;100.00
6668;BME280;3370;47.712;9.082;2023-09-18T07:19:39;96663.09;;;19.06;99.84
6668;BME280;3370;47.712;9.082;2023-09-18T07:22:05;96675.00;;;18.99;99.67
6668;BME280;3370;47.712;9.082;2023-09-18T07:24:31;96673.34;;;18.98;99.87
6668;BME280;3370;47.712;9.082;2023-09-18T07:26:57;96682.13;;;18.96;98.76
6668;BME280;3370;47.712;9.082;2023-09-18T07:29:24;96688.81;;;18.89;97.24
6668;BME280;3370;47.712;9.082;2023-09-18T07:31:51;96692.13;;;19.01;93.16
6668;BME280;3370;47.712;9.082;2023-09-18T07:34:17;96692.97;;;19.02;93.10
6668;BME280;3370;47.712;9.082;2023-09-18T07:36:43;96683.66;;;19.09;89.58
6668;BME280;3370;47.712;9.082;2023-09-18T07:39:10;96695.63;;;19.11;91.97
6668;BME280;3370;47.712;9.082;2023-09-18T07:41:37;96697.56;;;19.19;90.25
6668;BME280;3370;47.712;9.082;2023-09-18T07:44:03;96698.94;;;19.23;90.30
6668;BME280;3370;47.712;9.082;2023-09-18T07:46:29;96698.69;;;19.26;88.63
6668;BME280;3370;47.712;9.082;2023-09-18T07:48:55;96691.84;;;19.25;88.59
6668;BME280;3370;47.712;9.082;2023-09-18T07:51:21;96696.63;;;19.20;89.22
6668;BME280;3370;47.712;9.082;2023-09-18T07:53:48;96707.31;;;19.17;89.45
6668;BME280;3370;47.712;9.082;2023-09-18T07:56:13;96703.59;;;19.20;89.24
6668;BME280;3370;47.712;9.082;2023-09-18T07:58:39;96719.19;;;19.10;89.00
6668;BME280;3370;47.712;9.082;2023-09-18T08:01:06;96702.44;;;19.03;88.95
6668;BME280;3370;47.712;9.082;2023-09-18T08:03:32;96694.63;;;19.03;90.45
6668;BME280;3370;47.712;9.082;2023-09-18T08:05:58;96699.69;;;18.94;89.75
6668;BME280;3370;47.712;9.082;2023-09-18T08:08:24;96702.09;;;18.86;89.51
6668;BME280;3370;47.712;9.082;2023-09-18T08:10:51;96719.88;;;18.81;90.46
6668;BME280;3370;47.712;9.082;2023-09-18T08:13:18;96726.38;;;18.75;89.61
6668;BME280;3370;47.712;9.082;2023-09-18T08:15:45;96725.00;;;18.71;90.16
6668;BME280;3370;47.712;9.082;2023-09-18T08:18:12;96722.06;;;18.65;89.83
6668;BME280;3370;47.712;9.082;2023-09-18T08:20:44;96725.50;;;18.65;93.47
6668;BME280;3370;47.712;9.082;2023-09-18T08:23:10;96743.91;;;18.52;90.90
6668;BME280;3370;47.712;9.082;2023-09-18T08:25:36;96729.69;;;18.35;90.75
6668;BME280;3370;47.712;9.082;2023-09-18T08:28:03;96738.69;;;18.31;91.44
6668;BME280;3370;47.712;9.082;2023-09-18T08:30:30;96750.78;;;18.21;91.64
6668;BME280;3370;47.712;9.082;2023-09-18T08:32:56;96766.16;;;18.24;93.21
6668;BME280;3370;47.712;9.082;2023-09-18T08:35:22;96770.91;;;18.19;96.08
6668;BME280;3370;47.712;9.082;2023-09-18T08:37:48;96777.19;;;18.16;100.00
6668;BME280;3370;47.712;9.082;2023-09-18T08:40:14;96762.00;;;18.00;100.00
6668;BME280;3370;47.712;9.082;2023-09-18T08:42:47;96758.91;;;17.84;100.00
6668;BME280;3370;47.712;9.082;2023-09-18T08:45:41;96766.88;;;17.71;100.00
6668;BME280;3370;47.712;9.082;2023-09-18T08:48:09;96762.16;;;17.54;100.00
6668;BME280;3370;47.712;9.082;2023-09-18T08:50:36;96770.28;;;17.38;100.00
6668;BME280;3370;47.712;9.082;2023-09-18T08:53:03;96774.31;;;17.31;100.00
6668;BME280;3370;47.712;9.082;2023-09-18T08:55:29;96780.91;;;17.35;100.00
6668;BME280;3370;47.712;9.082;2023-09-18T08:57:58;96775.38;;;17.28;100.00
6668;BME280;3370;47.712;9.082;2023-09-18T09:00:26;96791.41;;;17.11;100.00
6668;BME280;3370;47.712;9.082;2023-09-18T09:02:52;96809.38;;;17.14;100.00
6668;BME280;3370;47.712;9.082;2023-09-18T09:05:21;96813.28;;;17.19;100.00
6668;BME280;3370;47.712;9.082;2023-09-18T09:07:46;96832.84;;;17.01;100.00
6668;BME280;3370;47.712;9.082;2023-09-18T09:10:12;96836.94;;;16.92;100.00
6668;BME280;3370;47.712;9.082;2023-09-18T09:12:58;96843.31;;;16.88;100.00
6668;BME280;3370;47.712;9.082;2023-09-18T09:15:34;96855.69;;;16.84;100.00
6668;BME280;3370;47.712;9.082;2023-09-18T09:18:08;96854.63;;;16.87;100.00
6668;BME280;3370;47.712;9.082;2023-09-18T09:20:35;96859.41;;;16.80;100.00
6668;BME280;3370;47.712;9.082;2023-09-18T09:23:03;96851.97;;;16.76;100.00
6668;BME280;3370;47.712;9.082;2023-09-18T09:25:31;96847.97;;;16.72;100.00
6668;BME280;3370;47.712;9.082;2023-09-18T09:27:59;96844.09;;;16.77;100.00
6668;BME280;3370;47.712;9.082;2023-09-18T09:30:28;96853.09;;;16.84;100.00
6668;BME280;3370;47.712;9.082;2023-09-18T09:32:58;96865.06;;;16.98;100.00
6668;BME280;3370;47.712;9.082;2023-09-18T09:35:31;96869.09;;;17.02;100.00
6668;BME280;3370;47.712;9.082;2023-09-18T09:38:12;96869.44;;;16.98;100.00
6668;BME280;3370;47.712;9.082;2023-09-18T09:40:43;96876.13;;;16.89;100.00
6668;BME280;3370;47.712;9.082;2023-09-18T09:43:12;96874.84;;;16.71;100.00
6668;BME280;3370;47.712;9.082;2023-09-18T09:45:42;96877.84;;;16.77;100.00
6668;BME280;3370;47.712;9.082;2023-09-18T09:48:07;96867.56;;;16.76;100.00
6668;BME280;3370;47.712;9.082;2023-09-18T09:50:45;96859.22;;;16.83;100.00
6668;BME280;3370;47.712;9.082;2023-09-18T09:53:14;96863.59;;;16.83;100.00
6668;BME280;3370;47.712;9.082;2023-09-18T09:55:41;96862.00;;;16.80;100.00
6668;BME280;3370;47.712;9.082;2023-09-18T09:58:08;96852.53;;;16.92;100.00
6668;BME280;3370;47.712;9.082;2023-09-18T10:00:51;96861.72;;;16.85;100.00
6668;BME280;3370;47.712;9.082;2023-09-18T10:03:21;96847.13;;;16.95;100.00
6668;BME280;3370;47.712;9.082;2023-09-18T10:05:51;96844.38;;;16.97;100.00
6668;BME280;3370;47.712;9.082;2023-09-18T10:08:23;96852.44;;;17.05;100.00
6668;BME280;3370;47.712;9.082;2023-09-18T10:10:51;96846.06;;;17.09;100.00
6668;BME280;3370;47.712;9.082;2023-09-18T10:13:41;96845.75;;;17.14;100.00
6668;BME280;3370;47.712;9.082;2023-09-18T10:16:10;96839.47;;;17.16;100.00
6668;BME280;3370;47.712;9.082;2023-09-18T10:21:44;96824.38;;;17.33;100.00
6668;BME280;3370;47.712;9.082;2023-09-18T10:24:24;96825.25;;;17.33;100.00
6668;BME280;3370;47.712;9.082;2023-09-18T10:26:56;96816.25;;;17.37;100.00
6668;BME280;3370;47.712;9.082;2023-09-18T10:29:25;96829.00;;;17.29;100.00
6668;BME280;3370;47.712;9.082;2023-09-18T10:31:52;96836.06;;;17.27;100.00
6668;BME280;3370;47.712;9.082;2023-09-18T10:34:20;96849.69;;;17.42;100.00
6668;BME280;3370;47.712;9.082;2023-09-18T10:36:54;96863.75;;;17.39;100.00
6668;BME280;3370;47.712;9.082;2023-09-18T10:39:23;96861.03;;;17.30;100.00
6668;BME280;3370;47.712;9.082;2023-09-18T10:41:54;96860.56;;;17.36;100.00
6668;BME280;3370;47.712;9.082;2023-09-18T10:44:21;96859.56;;;17.25;100.00
6668;BME280;3370;47.712;9.082;2023-09-18T10:46:50;96862.44;;;17.34;100.00
6668;BME280;3370;47.712;9.082;2023-09-18T10:49:18;96857.81;;;17.26;100.00
6668;BME280;3370;47.712;9.082;2023-09-18T10:51:46;96860.78;;;17.33;100.00
6668;BME280;3370;47.712;9.082;2023-09-18T10:54:25;96873.66;;;17.34;100.00
6668;BME280;3370;47.712;9.082;2023-09-18T10:56:52;96872.94;;;17.32;100.00
6668;BME280;3370;47.712;9.082;2023-09-18T10:59:20;96883.59;;;17.40;100.00
6668;BME280;3370;47.712;9.082;2023-09-18T11:01:46;96882.19;;;17.48;100.00
6668;BME280;3370;47.712;9.082;2023-09-18T11:04:18;96881.16;;;17.15;100.00
6668;BME280;3370;47.712;9.082;2023-09-18T11:09:29;96864.53;;;17.17;100.00
6668;BME280;3370;47.712;9.082;2023-09-18T11:14:56;96859.94;;;17.32;100.00
6668;BME280;3370;47.712;9.082;2023-09-18T11:17:42;96859.47;;;17.38;100.00
6668;BME280;3370;47.712;9.082;2023-09-18T11:22:50;96854.13;;;17.06;100.00
6668;BME280;3370;47.712;9.082;2023-09-18T11:28:29;96825.91;;;17.24;100.00
6668;BME280;3370;47.712;9.082;2023-09-18T11:30:58;96793.56;;;17.17;100.00
6668;BME280;3370;47.712;9.082;2023-09-18T11:33:40;96769.59;;;17.24;100.00
6668;BME280;3370;47.712;9.082;2023-09-18T11:36:15;96764.72;;;17.31;100.00
6668;BME280;3370;47.712;9.082;2023-09-18T11:39:02;96783.66;;;17.33;100.00
6668;BME280;3370;47.712;9.082;2023-09-18T11:41:32;96790.72;;;17.31;100.00
6668;BME280;3370;47.712;9.082;2023-09-18T11:46:39;96802.78;;;17.55;100.00
6668;BME280;3370;47.712;9.082;2023-09-18T11:49:07;96796.53;;;17.57;100.00
6668;BME280;3370;47.712;9.082;2023-09-18T11:51:36;96773.25;;;17.56;100.00
6668;BME280;3370;47.712;9.082;2023-09-18T11:54:02;96770.75;;;17.54;100.00
6668;BME280;3370;47.712;9.082;2023-09-18T11:56:30;96768.75;;;17.47;100.00
6668;BME280;3370;47.712;9.082;2023-09-18T11:58:55;96783.28;;;17.49;100.00
6668;BME280;3370;47.712;9.082;2023-09-18T12:01:21;96788.13;;;17.31;100.00
6668;BME280;3370;47.712;9.082;2023-09-18T12:03:54;96801.72;;;17.35;100.00
6668;BME280;3370;47.712;9.082;2023-09-18T12:06:21;96791.78;;;17.40;100.00
6668;BME280;3370;47.712;9.082;2023-09-18T12:08:47;96787.06;;;17.34;100.00
6668;BME280;3370;47.712;9.082;2023-09-18T12:11:14;96779.66;;;17.40;100.00
6668;BME280;3370;47.712;9.082;2023-09-18T12:13:43;96756.47;;;17.49;100.00
6668;BME280;3370;47.712;9.082;2023-09-18T12:16:09;96771.13;;;17.38;100.00
6668;BME280;3370;47.712;9.082;2023-09-18T12:18:36;96773.03;;;17.48;100.00
6668;BME280;3370;47.712;9.082;2023-09-18T12:21:06;96772.06;;;17.49;100.00
6668;BME280;3370;47.712;9.082;2023-09-18T12:23:39;96779.38;;;17.55;100.00
6668;BME280;3370;47.712;9.082;2023-09-18T12:26:06;96781.28;;;17.64;100.00
6668;BME280;3370;47.712;9.082;2023-09-18T12:28:37;96797.94;;;17.61;100.00
6668;BME280;3370;47.712;9.082;2023-09-18T12:31:03;96777.38;;;17.70;100.00
6668;BME280;3370;47.712;9.082;2023-09-18T12:33:35;96777.00;;;17.74;100.00
6668;BME280;3370;47.712;9.082;2023-09-18T12:39:16;96767.53;;;17.85;100.00
6668;BME280;3370;47.712;9.082;2023-09-18T12:41:46;96759.38;;;17.89;100.00
6668;BME280;3370;47.712;9.082;2023-09-18T12:44:13;96751.47;;;17.91;100.00
6668;BME280;3370;47.712;9.082;2023-09-18T12:46:40;96758.56;;;17.89;100.00
6668;BME280;3370;47.712;9.082;2023-09-18T12:49:23;96769.56;;;17.92;100.00
6668;BME280;3370;47.712;9.082;2023-09-18T12:51:58;96782.22;;;17.97;100.00
6668;BME280;3370;47.712;9.082;2023-09-18T12:54:57;96781.94;;;18.00;100.00
6668;BME280;3370;47.712;9.082;2023-09-18T12:57:25;96776.50;;;18.03;100.00
6668;BME280;3370;47.712;9.082;2023-09-18T12:59:51;96772.72;;;18.07;100.00
6668;BME280;3370;47.712;9.082;2023-09-18T13:02:18;96776.28;;;18.06;100.00
6668;BME280;3370;47.712;9.082;2023-09-18T13:04:55;96760.16;;;18.12;100.00
6668;BME280;3370;47.712;9.082;2023-09-18T13:07:22;96752.13;;;18.15;100.00
6668;BME280;3370;47.712;9.082;2023-09-18T13:10:03;96742.16;;;18.20;100.00
6668;BME280;3370;47.712;9.082;2023-09-18T13:12:49;96748.41;;;18.29;100.00
6668;BME280;3370;47.712;9.082;2023-09-18T13:15:26;96748.47;;;18.39;100.00
6668;BME280;3370;47.712;9.082;2023-09-18T13:17:53;96744.88;;;18.51;100.00
6668;BME280;3370;47.712;9.082;2023-09-18T13:20:28;96751.94;;;18.61;100.00
6668;BME280;3370;47.712;9.082;2023-09-18T13:23:00;96741.84;;;18.67;100.00
6668;BME280;3370;47.712;9.082;2023-09-18T13:25:30;96737.75;;;18.74;100.00
6668;BME280;3370;47.712;9.082;2023-09-18T13:28:01;96722.34;;;18.83;100.00
6668;BME280;3370;47.712;9.082;2023-09-18T13:30:28;96721.47;;;18.93;100.00
6668;BME280;3370;47.712;9.082;2023-09-18T13:33:09;96721.47;;;18.93;100.00
6668;BME280;3370;47.712;9.082;2023-09-18T13:35:41;96717.13;;;19.04;100.00
6668;BME280;3370;47.712;9.082;2023-09-18T13:38:08;96721.13;;;19.08;100.00